Lady Ayan — 3EET5 — position and weather

sailwx.info

Track history (hours):
 
Tides and Currents Weather Stations Pressure Air Temp Water Temp Dewpoint Dewpoint Depression Visibility Wind Speed Wind Dir Waves Ship Positions

Lady Ayan

Last reported at 2017-Aug-23 04:40 UTC. Time now 2017-Sep-26 11:14 UTC.
Position N 27°02' W 015°54'.
Warning: this ship's position is 34 days out of date.

Length 95 m; draft 6.9 m.

Type: Cargo ship. MMSI: 372212000.

Date/timePositionNaut miles runAvg speedWind from/ knotsBaromVisibWave heightAir tempDewpointWater temp
2017-Aug-23 04:40N 27°02' W 015°54'35 9.2
2017-Aug-23 00:51N 27°29' W 015°29'710.7
2017-Aug-23 00:12N 27°34' W 015°24'210.8
2017-Aug-23 00:00N 27°36' W 015°22'910.9
2017-Aug-22 23:12N 27°42' W 015°16'311.2
2017-Aug-22 22:57N 27°45' W 015°14'510.5
2017-Aug-22 22:30N 27°49' W 015°13'510.2
2017-Aug-22 22:00N 27°54' W 015°13'510.2
2017-Aug-22 21:30N 27°59' W 015°13'5 9.1
2017-Aug-22 21:00N 28°03' W 015°17'5 9.5
2017-Aug-22 20:30N 28°06' W 015°21'4 8.7
2017-Aug-22 20:00N 28°08' W 015°25'1 1.7
2017-Aug-22 19:28N 28°09' W 015°25'0 0.0
2017-Aug-22 18:58N 28°09' W 015°25'0 0.0
2017-Aug-22 18:28N 28°09' W 015°25'0 0.0
2017-Aug-22 17:55N 28°09' W 015°25'0 0.0
2017-Aug-22 17:28N 28°09' W 015°25'0 0.0
2017-Aug-22 16:58N 28°09' W 015°25'0 0.0
2017-Aug-22 16:28N 28°09' W 015°25'0 0.0
2017-Aug-22 15:58N 28°09' W 015°25'0 0.0
2017-Aug-22 15:28N 28°09' W 015°25'0 0.0
2017-Aug-22 14:49N 28°09' W 015°25'0 0.0
2017-Aug-22 14:28N 28°09' W 015°25'0 0.0
2017-Aug-22 13:49N 28°09' W 015°25'0 0.0
2017-Aug-22 13:19N 28°09' W 015°25'0 0.0
2017-Aug-22 12:49N 28°09' W 015°25'0 0.0
2017-Aug-22 12:22N 28°09' W 015°25'0 0.0
2017-Aug-22 11:52N 28°09' W 015°25'0 0.0
2017-Aug-22 11:22N 28°09' W 015°25'0 0.0
2017-Aug-22 10:52N 28°09' W 015°25'0 0.0
2017-Aug-22 10:22N 28°09' W 015°25'0 0.0
2017-Aug-22 09:55N 28°09' W 015°25'0 0.0
2017-Aug-22 09:25N 28°09' W 015°25'0 0.0
2017-Aug-22 08:55N 28°09' W 015°25'0 0.0
2017-Aug-22 08:30N 28°09' W 015°25'0 0.0
2017-Aug-22 08:00N 28°09' W 015°25'0 0.6
2017-Aug-22 07:30N 28°08' W 015°25'2 4.8
2017-Aug-22 07:00N 28°07' W 015°23'4 7.6
2017-Aug-22 06:30N 28°10' W 015°19'4 8.4
2017-Aug-22 06:00N 28°13' W 015°16'4 8.5
2017-Aug-22 05:30N 28°16' W 015°13'4 8.3
2017-Aug-22 05:00N 28°19' W 015°09'4 8.1
2017-Aug-22 04:30N 28°21' W 015°06'4 8.3
2017-Aug-22 04:00N 28°24' W 015°02'4 7.9
2017-Aug-22 03:30N 28°27' W 014°59'4 8.0
2017-Aug-22 03:00N 28°29' W 014°56'4 8.5
2017-Aug-22 02:30N 28°32' W 014°52'4 8.8
2017-Aug-22 02:00N 28°35' W 014°48'4 8.9
2017-Aug-22 01:30N 28°38' W 014°44'4 8.7
2017-Aug-22 01:00N 28°41' W 014°41'4 8.5
2017-Aug-22 00:30N 28°44' W 014°37'5 9.3
2017-Aug-22 00:00N 28°47' W 014°33'5 9.1
2017-Aug-21 23:30N 28°50' W 014°30'5 9.1
2017-Aug-21 23:00N 28°53' W 014°26'5 9.2
2017-Aug-21 22:30N 28°57' W 014°22'5 9.4
2017-Aug-21 22:00N 28°60' W 014°18'5 9.5
2017-Aug-21 21:30N 29°03' W 014°14'5 9.4
2017-Aug-21 21:00N 29°06' W 014°10'5 9.5
2017-Aug-21 20:30N 29°10' W 014°06'5 9.5
2017-Aug-21 20:00N 29°13' W 014°03'5 9.6
2017-Aug-21 19:30N 29°16' W 013°59'510.4
2017-Aug-21 19:00N 29°20' W 013°54'510.9
2017-Aug-21 18:30N 29°23' W 013°50'510.8
2017-Aug-21 18:00N 29°27' W 013°45'510.4
2017-Aug-21 17:30N 29°30' W 013°41'510.0
2017-Aug-21 17:00N 29°34' W 013°36'810.0
2017-Aug-21 16:13N 29°39' W 013°29'210.2
2017-Aug-21 16:00N 29°40' W 013°27'510.2
2017-Aug-21 15:30N 29°44' W 013°23'510.3
2017-Aug-21 15:00N 29°47' W 013°19'610.3
2017-Aug-21 14:24N 29°52' W 013°13'410.1
2017-Aug-21 14:00N 29°54' W 013°10'710.0
2017-Aug-21 13:21N 29°59' W 013°05'310.0
2017-Aug-21 13:00N 30°01' W 013°02'5 9.9
2017-Aug-21 12:29N 30°05' W 012°57'19 9.9
2017-Aug-21 10:36N 30°17' W 012°41'110.1
2017-Aug-21 10:30N 30°18' W 012°40'5 9.9
2017-Aug-21 10:00N 30°21' W 012°36'5 9.9
2017-Aug-21 09:30N 30°25' W 012°32'1910.1
2017-Aug-21 07:37N 30°37' W 012°16'1 9.7
2017-Aug-21 07:30N 30°38' W 012°15'5 9.7
2017-Aug-21 06:57N 30°42' W 012°10'4 9.9
2017-Aug-21 06:30N 30°45' W 012°06'510.3
2017-Aug-21 06:00N 30°48' W 012°02'610.3
2017-Aug-21 05:27N 30°52' W 011°57'410.1
2017-Aug-21 05:00N 30°55' W 011°53'810.0
2017-Aug-21 04:11N 31°00' W 011°46'7 9.9
2017-Aug-21 03:31N 31°05' W 011°40'110.0
2017-Aug-21 03:26N 31°05' W 011°39'610.0
2017-Aug-21 02:51N 31°09' W 011°34'410.3
2017-Aug-21 02:30N 31°12' W 011°31'510.3
2017-Aug-21 02:00N 31°15' W 011°27'510.5
2017-Aug-21 01:30N 31°19' W 011°22'910.4
2017-Aug-21 00:39N 31°25' W 011°14'110.2
2017-Aug-21 00:30N 31°26' W 011°13'510.4
2017-Aug-21 00:00N 31°29' W 011°08'910.2
2017-Aug-20 23:07N 31°35' W 011°00'410.2
2017-Aug-20 22:44N 31°37' W 010°57'310.3
2017-Aug-20 22:29N 31°39' W 010°54'710.4
2017-Aug-20 21:49N 31°42' W 010°47'2010.2
2017-Aug-20 19:52N 31°54' W 010°29'410.2
2017-Aug-20 19:30N 31°57' W 010°25'1810.6
2017-Aug-20 17:49N 32°09' W 010°10'810.6
2017-Aug-20 17:06N 32°14' W 010°04'810.4
2017-Aug-20 16:20N 32°21' W 009°58'610.2
2017-Aug-20 15:42N 32°26' W 009°53'210.1
2017-Aug-20 15:30N 32°27' W 009°51'510.2
2017-Aug-20 15:00N 32°31' W 009°47'5 9.9
2017-Aug-20 14:30N 32°35' W 009°44'510.1
2017-Aug-20 14:00N 32°39' W 009°40'510.3
2017-Aug-20 13:30N 32°43' W 009°36'510.7
2017-Aug-20 13:00N 32°47' W 009°32'510.7
2017-Aug-20 12:29N 32°51' W 009°28'268 9.7
2017-Aug-19 08:46N 35°58' W 005°35'310.0
2017-Aug-19 08:30N 35°59' W 005°32'510.0
2017-Aug-19 07:59N 36°00' W 005°26'5 9.5
2017-Aug-19 07:29N 36°02' W 005°21'5 9.7
2017-Aug-19 07:00N 36°03' W 005°15'148 9.1
2017-Aug-18 14:43N 36°26' W 002°14'2 9.2
2017-Aug-18 14:30N 36°26' W 002°12'62 9.7
2017-Aug-18 08:04N 37°07' W 001°13'5 9.6
2017-Aug-18 07:32N 37°11' W 001°08'1 9.5
2017-Aug-18 07:24N 37°12' W 001°07'4 9.7
2017-Aug-18 06:58N 37°14' W 001°03'6 9.8
2017-Aug-18 06:23N 37°18' W 000°58'4 9.9
2017-Aug-18 06:00N 37°21' W 000°54'5 9.8
2017-Aug-18 05:28N 37°24' W 000°49'4 9.6
2017-Aug-18 05:00N 37°27' W 000°45'5 9.4
2017-Aug-18 04:30N 37°30' W 000°40'5 9.3
2017-Aug-18 04:00N 37°33' W 000°36'5 9.2
2017-Aug-18 03:30N 37°36' W 000°32'5 9.2
2017-Aug-18 03:00N 37°40' W 000°29'5 9.4
2017-Aug-18 02:30N 37°44' W 000°25'7 9.4
2017-Aug-18 01:45N 37°50' W 000°21'3 9.7
2017-Aug-18 01:24N 37°53' W 000°18'410.0
2017-Aug-18 00:57N 37°57' W 000°15'410.1
2017-Aug-18 00:30N 38°01' W 000°12'510.4
2017-Aug-17 23:59N 38°05' W 000°09'510.0
2017-Aug-17 23:30N 38°09' W 000°05'5 9.9
2017-Aug-17 23:00N 38°13' W 000°02'7 9.9
2017-Aug-17 22:20N 38°19' E 000°03'43 9.5
2017-Aug-17 17:48N 38°54' E 000°35'3 9.3
2017-Aug-17 17:30N 38°56' E 000°37'19 9.6
2017-Aug-17 15:31N 39°11' E 000°53'16 9.7
2017-Aug-17 13:50N 39°23' E 001°07'11 9.2
2017-Aug-17 12:36N 39°32' E 001°16'13 9.3
2017-Aug-17 11:15N 39°41' E 001°26'2 9.4
2017-Aug-17 11:00N 39°43' E 001°28'5 9.4
2017-Aug-17 10:30N 39°47' E 001°32'5 9.3
2017-Aug-17 10:00N 39°50' E 001°36'5 9.1
2017-Aug-17 09:30N 39°54' E 001°40'5 9.1
2017-Aug-17 09:00N 39°57' E 001°44'5 9.1
2017-Aug-17 08:30N 40°00' E 001°48'5 9.2
2017-Aug-17 08:00N 40°04' E 001°52'5 9.4
2017-Aug-17 07:30N 40°07' E 001°56'5 9.4
2017-Aug-17 07:00N 40°11' E 001°60'5 9.2
2017-Aug-17 06:30N 40°15' E 002°04'5 9.5
2017-Aug-17 06:00N 40°18' E 002°08'5 9.7
2017-Aug-17 05:30N 40°22' E 002°12'5 9.6
2017-Aug-17 05:00N 40°26' E 002°16'5 9.5
2017-Aug-17 04:30N 40°29' E 002°20'5 9.6
2017-Aug-17 04:00N 40°33' E 002°24'5 9.6
2017-Aug-17 03:30N 40°36' E 002°29'5 9.4
2017-Aug-17 03:00N 40°40' E 002°33'5 9.4
2017-Aug-17 02:30N 40°43' E 002°37'5 9.6
2017-Aug-17 02:00N 40°47' E 002°41'5 9.7
2017-Aug-17 01:30N 40°51' E 002°45'5 9.9
2017-Aug-17 01:00N 40°55' E 002°49'5 9.9
2017-Aug-17 00:30N 40°59' E 002°53'510.2
2017-Aug-17 00:00N 41°02' E 002°57'510.2
2017-Aug-16 23:30N 41°06' E 003°01'510.4
2017-Aug-16 23:00N 41°11' E 003°05'510.2
2017-Aug-16 22:30N 41°14' E 003°10'510.3
2017-Aug-16 22:00N 41°18' E 003°15'510.0
2017-Aug-16 21:30N 41°22' E 003°19'5 9.9
2017-Aug-16 21:00N 41°26' E 003°23'5 9.9
2017-Aug-16 20:30N 41°29' E 003°28'5 9.4
2017-Aug-16 20:00N 41°32' E 003°33'5 9.1
2017-Aug-16 19:30N 41°34' E 003°38'5 9.2
2017-Aug-16 19:00N 41°36' E 003°44'5 9.6
2017-Aug-16 18:30N 41°39' E 003°49'5 9.7
2017-Aug-16 18:00N 41°41' E 003°55'5 9.3
2017-Aug-16 17:30N 41°43' E 004°00'5 9.4
2017-Aug-16 17:00N 41°45' E 004°06'5 9.5
2017-Aug-16 16:28N 41°47' E 004°12'4 9.2
2017-Aug-16 16:00N 41°49' E 004°17'5 9.2
2017-Aug-16 15:30N 41°52' E 004°23'5 9.5
2017-Aug-16 15:00N 41°54' E 004°28'5 9.5
2017-Aug-16 14:30N 41°56' E 004°34'5 9.3
2017-Aug-16 13:55N 41°58' E 004°41'4 9.4
2017-Aug-16 13:30N 42°00' E 004°45'5 9.2
2017-Aug-16 13:00N 42°02' E 004°51'5 9.6
2017-Aug-16 12:30N 42°05' E 004°56'5 9.9
2017-Aug-16 12:00N 42°07' E 005°02'5 9.8
2017-Aug-16 11:30N 42°09' E 005°08'5 9.7
2017-Aug-16 11:00N 42°11' E 005°14'5 9.8
2017-Aug-16 10:30N 42°14' E 005°20'5 9.9
2017-Aug-16 10:00N 42°16' E 005°26'5 9.9
2017-Aug-16 09:30N 42°19' E 005°32'5 9.8
2017-Aug-16 09:00N 42°21' E 005°37'5 9.9
2017-Aug-16 08:30N 42°23' E 005°43'510.1
2017-Aug-16 08:00N 42°25' E 005°49'5 9.9
2017-Aug-16 07:30N 42°28' E 005°55'5 9.9
2017-Aug-16 06:58N 42°30' E 006°02'510.2
2017-Aug-16 06:30N 42°32' E 006°08'710.2
2017-Aug-16 05:50N 42°35' E 006°16'3510.2
2017-Aug-16 02:22N 42°51' E 006°59'410.1
2017-Aug-16 02:00N 42°52' E 007°03'5 9.9
2017-Aug-16 01:30N 42°55' E 007°09'5 9.9
2017-Aug-16 01:00N 42°57' E 007°15'5 9.7
2017-Aug-16 00:30N 42°59' E 007°21'5 9.8
2017-Aug-16 00:01N 43°02' E 007°27'5 9.8
2017-Aug-15 23:30N 43°04' E 007°33'5 9.8
2017-Aug-15 23:00N 43°06' E 007°39'5 9.6
2017-Aug-15 22:30N 43°09' E 007°44'5 9.8
2017-Aug-15 22:00N 43°11' E 007°50'5 9.9
2017-Aug-15 21:30N 43°14' E 007°56'5 9.7
2017-Aug-15 21:00N 43°16' E 008°02'5 9.7
2017-Aug-15 20:30N 43°18' E 008°08'5 9.7
2017-Aug-15 19:59N 43°21' E 008°14'5 9.9
2017-Aug-15 19:30N 43°23' E 008°20'510.0
2017-Aug-15 19:00N 43°25' E 008°26'510.1
2017-Aug-15 18:30N 43°27' E 008°32'510.1
2017-Aug-15 18:00N 43°30' E 008°38'5 9.9
2017-Aug-15 17:30N 43°32' E 008°44'5 9.9
2017-Aug-15 17:00N 43°34' E 008°50'5 9.8
2017-Aug-15 16:30N 43°37' E 008°56'5 9.8
2017-Aug-15 16:00N 43°39' E 009°02'5 9.8
2017-Aug-15 15:30N 43°41' E 009°08'5 9.5
2017-Aug-15 15:00N 43°43' E 009°14'5 9.6
2017-Aug-15 14:30N 43°46' E 009°20'5 9.6
2017-Aug-15 14:00N 43°48' E 009°26'5 9.6
2017-Aug-15 13:31N 43°50' E 009°32'5 9.6
2017-Aug-15 13:00N 43°52' E 009°38'5 9.5
2017-Aug-15 12:30N 43°54' E 009°44'5 9.3
2017-Aug-15 12:01N 43°56' E 009°49'5 9.3
2017-Aug-15 11:30N 43°59' E 009°55'5 9.6
2017-Aug-15 11:00N 44°01' E 010°01'1 1.6
2017-Aug-15 10:29N 44°01' E 010°02'0 0.0
2017-Aug-15 09:59N 44°01' E 010°02'0 0.0
2017-Aug-15 09:29N 44°01' E 010°02'0 0.0
2017-Aug-15 08:56N 44°01' E 010°02'0 0.0
2017-Aug-15 08:29N 44°01' E 010°02'0 0.1
2017-Aug-15 07:59N 44°01' E 010°02'0 0.0
2017-Aug-15 07:20N 44°01' E 010°02'0 0.0
2017-Aug-15 06:59N 44°01' E 010°02'0 0.0
2017-Aug-15 06:29N 44°01' E 010°02'0 0.0
2017-Aug-15 05:59N 44°01' E 010°02'0 0.0
2017-Aug-15 05:29N 44°01' E 010°02'0 0.0
2017-Aug-15 04:59N 44°01' E 010°02'0 0.0
2017-Aug-15 04:29N 44°01' E 010°02'0 0.0
2017-Aug-15 03:59N 44°01' E 010°02'0 0.0
2017-Aug-15 03:29N 44°01' E 010°02'0 0.0
2017-Aug-15 02:59N 44°01' E 010°02'0 0.0
2017-Aug-15 02:29N 44°01' E 010°02'0 0.0
2017-Aug-15 01:59N 44°01' E 010°02'0 0.0
2017-Aug-15 01:29N 44°01' E 010°02'0 0.0
2017-Aug-15 00:59N 44°01' E 010°02'0 0.0
2017-Aug-15 00:29N 44°01' E 010°02'0 0.0
2017-Aug-14 23:59N 44°01' E 010°02'0 0.0
2017-Aug-14 23:29N 44°01' E 010°02'0 0.0
2017-Aug-14 22:59N 44°01' E 010°02'0 0.0
2017-Aug-14 22:29N 44°01' E 010°02'0 0.0
2017-Aug-14 21:59N 44°01' E 010°02'0 0.9
2017-Aug-14 21:30N 44°01' E 010°02'1 1.6
2017-Aug-14 20:59N 44°02' E 010°02'0 0.0
2017-Aug-14 20:29N 44°02' E 010°02'0 0.0
2017-Aug-14 19:59N 44°02' E 010°02'0 0.0
2017-Aug-14 19:29N 44°02' E 010°02'0 0.0
2017-Aug-14 18:56N 44°02' E 010°02'0 0.0
2017-Aug-14 18:29N 44°02' E 010°02'0 0.0
2017-Aug-14 17:59N 44°02' E 010°02'0 0.0
2017-Aug-14 17:29N 44°02' E 010°02'0 0.0
2017-Aug-14 16:59N 44°02' E 010°02'0 0.0
2017-Aug-14 16:26N 44°02' E 010°02'0 0.0
2017-Aug-14 15:59N 44°02' E 010°02'0 0.0
2017-Aug-14 15:29N 44°02' E 010°02'0 0.0
2017-Aug-14 14:59N 44°02' E 010°02'0 0.0
2017-Aug-14 14:26N 44°02' E 010°02'0 0.0
2017-Aug-14 13:59N 44°02' E 010°02'0 0.0
2017-Aug-14 13:20N 44°02' E 010°02'0 0.0
2017-Aug-14 12:59N 44°02' E 010°02'0 0.0
2017-Aug-14 12:29N 44°02' E 010°02'0 0.0
2017-Aug-14 11:59N 44°02' E 010°02'0 0.0
2017-Aug-14 11:26N 44°02' E 010°02'0 0.0
2017-Aug-14 10:59N 44°02' E 010°02'0 0.0
2017-Aug-14 10:29N 44°02' E 010°02'0 0.0
2017-Aug-14 09:59N 44°02' E 010°02'0 0.0
2017-Aug-14 09:29N 44°02' E 010°02'0 0.0
2017-Aug-14 08:59N 44°02' E 010°02'0 0.0
2017-Aug-14 08:29N 44°02' E 010°02'0 0.0
2017-Aug-14 07:59N 44°02' E 010°02'0 0.0
2017-Aug-14 07:29N 44°02' E 010°02'0 0.0
2017-Aug-14 06:56N 44°02' E 010°02'0 0.0
2017-Aug-14 06:29N 44°02' E 010°02'0 0.0
2017-Aug-14 05:59N 44°02' E 010°02'0 0.0
2017-Aug-14 05:26N 44°02' E 010°02'0 0.0
2017-Aug-14 04:59N 44°02' E 010°02'1 1.1
2017-Aug-14 04:30N 44°02' E 010°03'1 1.3
2017-Aug-14 03:57N 44°01' E 010°02'0 0.1
2017-Aug-14 03:27N 44°01' E 010°02'0 0.0
2017-Aug-14 02:57N 44°01' E 010°02'0 0.0
2017-Aug-14 02:30N 44°01' E 010°02'0 0.0
2017-Aug-14 02:00N 44°01' E 010°02'0 0.0
2017-Aug-14 01:27N 44°01' E 010°02'0 0.0
2017-Aug-14 01:00N 44°01' E 010°02'0 0.0
2017-Aug-14 00:30N 44°01' E 010°02'0 0.0
2017-Aug-14 00:00N 44°01' E 010°02'0 0.0
2017-Aug-13 23:30N 44°01' E 010°02'0 0.0
2017-Aug-13 23:00N 44°01' E 010°02'0 0.0
2017-Aug-13 22:24N 44°01' E 010°02'0 0.0
2017-Aug-13 22:00N 44°01' E 010°02'0 0.1
2017-Aug-13 21:30N 44°01' E 010°02'1 1.2
2017-Aug-13 21:00N 44°01' E 010°02'5 9.2
2017-Aug-13 20:30N 43°57' E 009°59'5 9.3
2017-Aug-13 20:00N 43°52' E 009°56'5 9.4
2017-Aug-13 19:30N 43°48' E 009°53'5 9.3
2017-Aug-13 19:00N 43°44' E 009°50'5 9.1
2017-Aug-13 18:30N 43°40' E 009°47'4 9.0
2017-Aug-13 18:00N 43°36' E 009°46'4 8.7
2017-Aug-13 17:30N 43°32' E 009°45'4 8.4
2017-Aug-13 17:00N 43°27' E 009°44'4 8.7
2017-Aug-13 16:30N 43°23' E 009°43'4 8.8
2017-Aug-13 16:00N 43°19' E 009°42'4 8.6
2017-Aug-13 15:30N 43°15' E 009°41'5 9.3
2017-Aug-13 15:00N 43°10' E 009°39'510.0
2017-Aug-13 14:30N 43°05' E 009°38'5 9.7
2017-Aug-13 14:00N 43°00' E 009°39'5 9.9
2017-Aug-13 13:29N 42°55' E 009°41'6 9.5
2017-Aug-13 12:48N 42°49' E 009°44'7 8.7
2017-Aug-13 11:59N 42°45' E 009°52'5 8.9
2017-Aug-13 11:26N 42°43' E 009°58'5 9.4
2017-Aug-13 10:54N 42°41' E 010°04'4 9.8
2017-Aug-13 10:30N 42°39' E 010°09'8 9.8
2017-Aug-13 09:40N 42°33' E 010°16'3 9.8
2017-Aug-13 09:22N 42°31' E 010°19'6 9.9
2017-Aug-13 08:48N 42°27' E 010°24'310.0
2017-Aug-13 08:28N 42°25' E 010°27'4 9.8
2017-Aug-13 08:00N 42°22' E 010°32'5 9.9
2017-Aug-13 07:27N 42°18' E 010°37'510.0
2017-Aug-13 06:58N 42°14' E 010°42'5 9.8
2017-Aug-13 06:30N 42°11' E 010°46'5 9.7
2017-Aug-13 05:58N 42°07' E 010°51'5 9.5
2017-Aug-13 05:29N 42°04' E 010°55'5 9.5
2017-Aug-13 05:00N 42°01' E 010°59'  
Track history (hours):
 
Tides and Currents Weather Stations Pressure Air Temp Water Temp Dewpoint Dewpoint Depression Visibility Wind Speed Wind Dir Waves Ship Positions

Lady Ayan

Last reported at 2017-Aug-23 04:40 UTC. Time now 2017-Sep-26 11:14 UTC.
Position N 27°02' W 015°54'.
Warning: this ship's position is 34 days out of date.

Length 95 m; draft 6.9 m.

Type: Cargo ship. MMSI: 372212000.

Date/timePositionNaut miles runAvg speedWind from/ knotsBaromVisibWave heightAir tempDewpointWater temp
2017-Aug-23 04:40N 27°02' W 015°54'35 9.2
2017-Aug-23 00:51N 27°29' W 015°29'710.7
2017-Aug-23 00:12N 27°34' W 015°24'210.8
2017-Aug-23 00:00N 27°36' W 015°22'910.9
2017-Aug-22 23:12N 27°42' W 015°16'311.2
2017-Aug-22 22:57N 27°45' W 015°14'510.5
2017-Aug-22 22:30N 27°49' W 015°13'510.2
2017-Aug-22 22:00N 27°54' W 015°13'510.2
2017-Aug-22 21:30N 27°59' W 015°13'5 9.1
2017-Aug-22 21:00N 28°03' W 015°17'5 9.5
2017-Aug-22 20:30N 28°06' W 015°21'4 8.7
2017-Aug-22 20:00N 28°08' W 015°25'1 1.7
2017-Aug-22 19:28N 28°09' W 015°25'0 0.0
2017-Aug-22 18:58N 28°09' W 015°25'0 0.0
2017-Aug-22 18:28N 28°09' W 015°25'0 0.0
2017-Aug-22 17:55N 28°09' W 015°25'0 0.0
2017-Aug-22 17:28N 28°09' W 015°25'0 0.0
2017-Aug-22 16:58N 28°09' W 015°25'0 0.0
2017-Aug-22 16:28N 28°09' W 015°25'0 0.0
2017-Aug-22 15:58N 28°09' W 015°25'0 0.0
2017-Aug-22 15:28N 28°09' W 015°25'0 0.0
2017-Aug-22 14:49N 28°09' W 015°25'0 0.0
2017-Aug-22 14:28N 28°09' W 015°25'0 0.0
2017-Aug-22 13:49N 28°09' W 015°25'0 0.0
2017-Aug-22 13:19N 28°09' W 015°25'0 0.0
2017-Aug-22 12:49N 28°09' W 015°25'0 0.0
2017-Aug-22 12:22N 28°09' W 015°25'0 0.0
2017-Aug-22 11:52N 28°09' W 015°25'0 0.0
2017-Aug-22 11:22N 28°09' W 015°25'0 0.0
2017-Aug-22 10:52N 28°09' W 015°25'0 0.0
2017-Aug-22 10:22N 28°09' W 015°25'0 0.0
2017-Aug-22 09:55N 28°09' W 015°25'0 0.0
2017-Aug-22 09:25N 28°09' W 015°25'0 0.0
2017-Aug-22 08:55N 28°09' W 015°25'0 0.0
2017-Aug-22 08:30N 28°09' W 015°25'0 0.0
2017-Aug-22 08:00N 28°09' W 015°25'0 0.6
2017-Aug-22 07:30N 28°08' W 015°25'2 4.8
2017-Aug-22 07:00N 28°07' W 015°23'4 7.6
2017-Aug-22 06:30N 28°10' W 015°19'4 8.4
2017-Aug-22 06:00N 28°13' W 015°16'4 8.5
2017-Aug-22 05:30N 28°16' W 015°13'4 8.3
2017-Aug-22 05:00N 28°19' W 015°09'4 8.1
2017-Aug-22 04:30N 28°21' W 015°06'4 8.3
2017-Aug-22 04:00N 28°24' W 015°02'4 7.9
2017-Aug-22 03:30N 28°27' W 014°59'4 8.0
2017-Aug-22 03:00N 28°29' W 014°56'4 8.5
2017-Aug-22 02:30N 28°32' W 014°52'4 8.8
2017-Aug-22 02:00N 28°35' W 014°48'4 8.9
2017-Aug-22 01:30N 28°38' W 014°44'4 8.7
2017-Aug-22 01:00N 28°41' W 014°41'4 8.5
2017-Aug-22 00:30N 28°44' W 014°37'5 9.3
2017-Aug-22 00:00N 28°47' W 014°33'5 9.1
2017-Aug-21 23:30N 28°50' W 014°30'5 9.1
2017-Aug-21 23:00N 28°53' W 014°26'5 9.2
2017-Aug-21 22:30N 28°57' W 014°22'5 9.4
2017-Aug-21 22:00N 28°60' W 014°18'5 9.5
2017-Aug-21 21:30N 29°03' W 014°14'5 9.4
2017-Aug-21 21:00N 29°06' W 014°10'5 9.5
2017-Aug-21 20:30N 29°10' W 014°06'5 9.5
2017-Aug-21 20:00N 29°13' W 014°03'5 9.6
2017-Aug-21 19:30N 29°16' W 013°59'510.4
2017-Aug-21 19:00N 29°20' W 013°54'510.9
2017-Aug-21 18:30N 29°23' W 013°50'510.8
2017-Aug-21 18:00N 29°27' W 013°45'510.4
2017-Aug-21 17:30N 29°30' W 013°41'510.0
2017-Aug-21 17:00N 29°34' W 013°36'810.0
2017-Aug-21 16:13N 29°39' W 013°29'210.2
2017-Aug-21 16:00N 29°40' W 013°27'510.2
2017-Aug-21 15:30N 29°44' W 013°23'510.3
2017-Aug-21 15:00N 29°47' W 013°19'610.3
2017-Aug-21 14:24N 29°52' W 013°13'410.1
2017-Aug-21 14:00N 29°54' W 013°10'710.0
2017-Aug-21 13:21N 29°59' W 013°05'310.0
2017-Aug-21 13:00N 30°01' W 013°02'5 9.9
2017-Aug-21 12:29N 30°05' W 012°57'19 9.9
2017-Aug-21 10:36N 30°17' W 012°41'110.1
2017-Aug-21 10:30N 30°18' W 012°40'5 9.9
2017-Aug-21 10:00N 30°21' W 012°36'5 9.9
2017-Aug-21 09:30N 30°25' W 012°32'1910.1
2017-Aug-21 07:37N 30°37' W 012°16'1 9.7
2017-Aug-21 07:30N 30°38' W 012°15'5 9.7
2017-Aug-21 06:57N 30°42' W 012°10'4 9.9
2017-Aug-21 06:30N 30°45' W 012°06'510.3
2017-Aug-21 06:00N 30°48' W 012°02'610.3
2017-Aug-21 05:27N 30°52' W 011°57'410.1
2017-Aug-21 05:00N 30°55' W 011°53'810.0
2017-Aug-21 04:11N 31°00' W 011°46'7 9.9
2017-Aug-21 03:31N 31°05' W 011°40'110.0
2017-Aug-21 03:26N 31°05' W 011°39'610.0
2017-Aug-21 02:51N 31°09' W 011°34'410.3
2017-Aug-21 02:30N 31°12' W 011°31'510.3
2017-Aug-21 02:00N 31°15' W 011°27'510.5
2017-Aug-21 01:30N 31°19' W 011°22'910.4
2017-Aug-21 00:39N 31°25' W 011°14'110.2
2017-Aug-21 00:30N 31°26' W 011°13'510.4
2017-Aug-21 00:00N 31°29' W 011°08'910.2
2017-Aug-20 23:07N 31°35' W 011°00'410.2
2017-Aug-20 22:44N 31°37' W 010°57'310.3
2017-Aug-20 22:29N 31°39' W 010°54'710.4
2017-Aug-20 21:49N 31°42' W 010°47'2010.2
2017-Aug-20 19:52N 31°54' W 010°29'410.2
2017-Aug-20 19:30N 31°57' W 010°25'1810.6
2017-Aug-20 17:49N 32°09' W 010°10'810.6
2017-Aug-20 17:06N 32°14' W 010°04'810.4
2017-Aug-20 16:20N 32°21' W 009°58'610.2
2017-Aug-20 15:42N 32°26' W 009°53'210.1
2017-Aug-20 15:30N 32°27' W 009°51'510.2
2017-Aug-20 15:00N 32°31' W 009°47'5 9.9
2017-Aug-20 14:30N 32°35' W 009°44'510.1
2017-Aug-20 14:00N 32°39' W 009°40'510.3
2017-Aug-20 13:30N 32°43' W 009°36'510.7
2017-Aug-20 13:00N 32°47' W 009°32'510.7
2017-Aug-20 12:29N 32°51' W 009°28'268 9.7
2017-Aug-19 08:46N 35°58' W 005°35'310.0
2017-Aug-19 08:30N 35°59' W 005°32'510.0
2017-Aug-19 07:59N 36°00' W 005°26'5 9.5
2017-Aug-19 07:29N 36°02' W 005°21'5 9.7
2017-Aug-19 07:00N 36°03' W 005°15'148 9.1
2017-Aug-18 14:43N 36°26' W 002°14'2 9.2
2017-Aug-18 14:30N 36°26' W 002°12'62 9.7
2017-Aug-18 08:04N 37°07' W 001°13'5 9.6
2017-Aug-18 07:32N 37°11' W 001°08'1 9.5
2017-Aug-18 07:24N 37°12' W 001°07'4 9.7
2017-Aug-18 06:58N 37°14' W 001°03'6 9.8
2017-Aug-18 06:23N 37°18' W 000°58'4 9.9
2017-Aug-18 06:00N 37°21' W 000°54'5 9.8
2017-Aug-18 05:28N 37°24' W 000°49'4 9.6
2017-Aug-18 05:00N 37°27' W 000°45'5 9.4
2017-Aug-18 04:30N 37°30' W 000°40'5 9.3
2017-Aug-18 04:00N 37°33' W 000°36'5 9.2
2017-Aug-18 03:30N 37°36' W 000°32'5 9.2
2017-Aug-18 03:00N 37°40' W 000°29'5 9.4
2017-Aug-18 02:30N 37°44' W 000°25'7 9.4
2017-Aug-18 01:45N 37°50' W 000°21'3 9.7
2017-Aug-18 01:24N 37°53' W 000°18'410.0
2017-Aug-18 00:57N 37°57' W 000°15'410.1
2017-Aug-18 00:30N 38°01' W 000°12'510.4
2017-Aug-17 23:59N 38°05' W 000°09'510.0
2017-Aug-17 23:30N 38°09' W 000°05'5 9.9
2017-Aug-17 23:00N 38°13' W 000°02'7 9.9
2017-Aug-17 22:20N 38°19' E 000°03'43 9.5
2017-Aug-17 17:48N 38°54' E 000°35'3 9.3
2017-Aug-17 17:30N 38°56' E 000°37'19 9.6
2017-Aug-17 15:31N 39°11' E 000°53'16 9.7
2017-Aug-17 13:50N 39°23' E 001°07'11 9.2
2017-Aug-17 12:36N 39°32' E 001°16'13 9.3
2017-Aug-17 11:15N 39°41' E 001°26'2 9.4
2017-Aug-17 11:00N 39°43' E 001°28'5 9.4
2017-Aug-17 10:30N 39°47' E 001°32'5 9.3
2017-Aug-17 10:00N 39°50' E 001°36'5 9.1
2017-Aug-17 09:30N 39°54' E 001°40'5 9.1
2017-Aug-17 09:00N 39°57' E 001°44'5 9.1
2017-Aug-17 08:30N 40°00' E 001°48'5 9.2
2017-Aug-17 08:00N 40°04' E 001°52'5 9.4
2017-Aug-17 07:30N 40°07' E 001°56'5 9.4
2017-Aug-17 07:00N 40°11' E 001°60'5 9.2
2017-Aug-17 06:30N 40°15' E 002°04'5 9.5
2017-Aug-17 06:00N 40°18' E 002°08'5 9.7
2017-Aug-17 05:30N 40°22' E 002°12'5 9.6
2017-Aug-17 05:00N 40°26' E 002°16'5 9.5
2017-Aug-17 04:30N 40°29' E 002°20'5 9.6
2017-Aug-17 04:00N 40°33' E 002°24'5 9.6
2017-Aug-17 03:30N 40°36' E 002°29'5 9.4
2017-Aug-17 03:00N 40°40' E 002°33'5 9.4
2017-Aug-17 02:30N 40°43' E 002°37'5 9.6
2017-Aug-17 02:00N 40°47' E 002°41'5 9.7
2017-Aug-17 01:30N 40°51' E 002°45'5 9.9
2017-Aug-17 01:00N 40°55' E 002°49'5 9.9
2017-Aug-17 00:30N 40°59' E 002°53'510.2
2017-Aug-17 00:00N 41°02' E 002°57'510.2
2017-Aug-16 23:30N 41°06' E 003°01'510.4
2017-Aug-16 23:00N 41°11' E 003°05'510.2
2017-Aug-16 22:30N 41°14' E 003°10'510.3
2017-Aug-16 22:00N 41°18' E 003°15'510.0
2017-Aug-16 21:30N 41°22' E 003°19'5 9.9
2017-Aug-16 21:00N 41°26' E 003°23'5 9.9
2017-Aug-16 20:30N 41°29' E 003°28'5 9.4
2017-Aug-16 20:00N 41°32' E 003°33'5 9.1
2017-Aug-16 19:30N 41°34' E 003°38'5 9.2
2017-Aug-16 19:00N 41°36' E 003°44'5 9.6
2017-Aug-16 18:30N 41°39' E 003°49'5 9.7
2017-Aug-16 18:00N 41°41' E 003°55'5 9.3
2017-Aug-16 17:30N 41°43' E 004°00'5 9.4
2017-Aug-16 17:00N 41°45' E 004°06'5 9.5
2017-Aug-16 16:28N 41°47' E 004°12'4 9.2
2017-Aug-16 16:00N 41°49' E 004°17'5 9.2
2017-Aug-16 15:30N 41°52' E 004°23'5 9.5
2017-Aug-16 15:00N 41°54' E 004°28'5 9.5
2017-Aug-16 14:30N 41°56' E 004°34'5 9.3
2017-Aug-16 13:55N 41°58' E 004°41'4 9.4
2017-Aug-16 13:30N 42°00' E 004°45'5 9.2
2017-Aug-16 13:00N 42°02' E 004°51'5 9.6
2017-Aug-16 12:30N 42°05' E 004°56'5 9.9
2017-Aug-16 12:00N 42°07' E 005°02'5 9.8
2017-Aug-16 11:30N 42°09' E 005°08'5 9.7
2017-Aug-16 11:00N 42°11' E 005°14'5 9.8
2017-Aug-16 10:30N 42°14' E 005°20'5 9.9
2017-Aug-16 10:00N 42°16' E 005°26'5 9.9
2017-Aug-16 09:30N 42°19' E 005°32'5 9.8
2017-Aug-16 09:00N 42°21' E 005°37'5 9.9
2017-Aug-16 08:30N 42°23' E 005°43'510.1
2017-Aug-16 08:00N 42°25' E 005°49'5 9.9
2017-Aug-16 07:30N 42°28' E 005°55'5 9.9
2017-Aug-16 06:58N 42°30' E 006°02'510.2
2017-Aug-16 06:30N 42°32' E 006°08'710.2
2017-Aug-16 05:50N 42°35' E 006°16'3510.2
2017-Aug-16 02:22N 42°51' E 006°59'410.1
2017-Aug-16 02:00N 42°52' E 007°03'5 9.9
2017-Aug-16 01:30N 42°55' E 007°09'5 9.9
2017-Aug-16 01:00N 42°57' E 007°15'5 9.7
2017-Aug-16 00:30N 42°59' E 007°21'5 9.8
2017-Aug-16 00:01N 43°02' E 007°27'5 9.8
2017-Aug-15 23:30N 43°04' E 007°33'5 9.8
2017-Aug-15 23:00N 43°06' E 007°39'5 9.6
2017-Aug-15 22:30N 43°09' E 007°44'5 9.8
2017-Aug-15 22:00N 43°11' E 007°50'5 9.9
2017-Aug-15 21:30N 43°14' E 007°56'5 9.7
2017-Aug-15 21:00N 43°16' E 008°02'5 9.7
2017-Aug-15 20:30N 43°18' E 008°08'5 9.7
2017-Aug-15 19:59N 43°21' E 008°14'5 9.9
2017-Aug-15 19:30N 43°23' E 008°20'510.0
2017-Aug-15 19:00N 43°25' E 008°26'510.1
2017-Aug-15 18:30N 43°27' E 008°32'510.1
2017-Aug-15 18:00N 43°30' E 008°38'5 9.9
2017-Aug-15 17:30N 43°32' E 008°44'5 9.9
2017-Aug-15 17:00N 43°34' E 008°50'5 9.8
2017-Aug-15 16:30N 43°37' E 008°56'5 9.8
2017-Aug-15 16:00N 43°39' E 009°02'5 9.8
2017-Aug-15 15:30N 43°41' E 009°08'5 9.5
2017-Aug-15 15:00N 43°43' E 009°14'5 9.6
2017-Aug-15 14:30N 43°46' E 009°20'5 9.6
2017-Aug-15 14:00N 43°48' E 009°26'5 9.6
2017-Aug-15 13:31N 43°50' E 009°32'5 9.6
2017-Aug-15 13:00N 43°52' E 009°38'5 9.5
2017-Aug-15 12:30N 43°54' E 009°44'5 9.3
2017-Aug-15 12:01N 43°56' E 009°49'5 9.3
2017-Aug-15 11:30N 43°59' E 009°55'5 9.6
2017-Aug-15 11:00N 44°01' E 010°01'1 1.6
2017-Aug-15 10:29N 44°01' E 010°02'0 0.0
2017-Aug-15 09:59N 44°01' E 010°02'0 0.0
2017-Aug-15 09:29N 44°01' E 010°02'0 0.0
2017-Aug-15 08:56N 44°01' E 010°02'0 0.0
2017-Aug-15 08:29N 44°01' E 010°02'0 0.1
2017-Aug-15 07:59N 44°01' E 010°02'0 0.0
2017-Aug-15 07:20N 44°01' E 010°02'0 0.0
2017-Aug-15 06:59N 44°01' E 010°02'0 0.0
2017-Aug-15 06:29N 44°01' E 010°02'0 0.0
2017-Aug-15 05:59N 44°01' E 010°02'0 0.0
2017-Aug-15 05:29N 44°01' E 010°02'0 0.0
2017-Aug-15 04:59N 44°01' E 010°02'0 0.0
2017-Aug-15 04:29N 44°01' E 010°02'0 0.0
2017-Aug-15 03:59N 44°01' E 010°02'0 0.0
2017-Aug-15 03:29N 44°01' E 010°02'0 0.0
2017-Aug-15 02:59N 44°01' E 010°02'0 0.0
2017-Aug-15 02:29N 44°01' E 010°02'0 0.0
2017-Aug-15 01:59N 44°01' E 010°02'0 0.0
2017-Aug-15 01:29N 44°01' E 010°02'0 0.0
2017-Aug-15 00:59N 44°01' E 010°02'0 0.0
2017-Aug-15 00:29N 44°01' E 010°02'0 0.0
2017-Aug-14 23:59N 44°01' E 010°02'0 0.0
2017-Aug-14 23:29N 44°01' E 010°02'0 0.0
2017-Aug-14 22:59N 44°01' E 010°02'0 0.0
2017-Aug-14 22:29N 44°01' E 010°02'0 0.0
2017-Aug-14 21:59N 44°01' E 010°02'0 0.9
2017-Aug-14 21:30N 44°01' E 010°02'1 1.6
2017-Aug-14 20:59N 44°02' E 010°02'0 0.0
2017-Aug-14 20:29N 44°02' E 010°02'0 0.0
2017-Aug-14 19:59N 44°02' E 010°02'0 0.0
2017-Aug-14 19:29N 44°02' E 010°02'0 0.0
2017-Aug-14 18:56N 44°02' E 010°02'0 0.0
2017-Aug-14 18:29N 44°02' E 010°02'0 0.0
2017-Aug-14 17:59N 44°02' E 010°02'0 0.0
2017-Aug-14 17:29N 44°02' E 010°02'0 0.0
2017-Aug-14 16:59N 44°02' E 010°02'0 0.0
2017-Aug-14 16:26N 44°02' E 010°02'0 0.0
2017-Aug-14 15:59N 44°02' E 010°02'0 0.0
2017-Aug-14 15:29N 44°02' E 010°02'0 0.0
2017-Aug-14 14:59N 44°02' E 010°02'0 0.0
2017-Aug-14 14:26N 44°02' E 010°02'0 0.0
2017-Aug-14 13:59N 44°02' E 010°02'0 0.0
2017-Aug-14 13:20N 44°02' E 010°02'0 0.0
2017-Aug-14 12:59N 44°02' E 010°02'0 0.0
2017-Aug-14 12:29N 44°02' E 010°02'0 0.0
2017-Aug-14 11:59N 44°02' E 010°02'0 0.0
2017-Aug-14 11:26N 44°02' E 010°02'0 0.0
2017-Aug-14 10:59N 44°02' E 010°02'0 0.0
2017-Aug-14 10:29N 44°02' E 010°02'0 0.0
2017-Aug-14 09:59N 44°02' E 010°02'0 0.0
2017-Aug-14 09:29N 44°02' E 010°02'0 0.0
2017-Aug-14 08:59N 44°02' E 010°02'0 0.0
2017-Aug-14 08:29N 44°02' E 010°02'0 0.0
2017-Aug-14 07:59N 44°02' E 010°02'0 0.0
2017-Aug-14 07:29N 44°02' E 010°02'0 0.0
2017-Aug-14 06:56N 44°02' E 010°02'0 0.0
2017-Aug-14 06:29N 44°02' E 010°02'0 0.0
2017-Aug-14 05:59N 44°02' E 010°02'0 0.0
2017-Aug-14 05:26N 44°02' E 010°02'0 0.0
2017-Aug-14 04:59N 44°02' E 010°02'1 1.1
2017-Aug-14 04:30N 44°02' E 010°03'1 1.3
2017-Aug-14 03:57N 44°01' E 010°02'0 0.1
2017-Aug-14 03:27N 44°01' E 010°02'0 0.0
2017-Aug-14 02:57N 44°01' E 010°02'0 0.0
2017-Aug-14 02:30N 44°01' E 010°02'0 0.0
2017-Aug-14 02:00N 44°01' E 010°02'0 0.0
2017-Aug-14 01:27N 44°01' E 010°02'0 0.0
2017-Aug-14 01:00N 44°01' E 010°02'0 0.0
2017-Aug-14 00:30N 44°01' E 010°02'0 0.0
2017-Aug-14 00:00N 44°01' E 010°02'0 0.0
2017-Aug-13 23:30N 44°01' E 010°02'0 0.0
2017-Aug-13 23:00N 44°01' E 010°02'0 0.0
2017-Aug-13 22:24N 44°01' E 010°02'0 0.0
2017-Aug-13 22:00N 44°01' E 010°02'0 0.1
2017-Aug-13 21:30N 44°01' E 010°02'1 1.2
2017-Aug-13 21:00N 44°01' E 010°02'5 9.2
2017-Aug-13 20:30N 43°57' E 009°59'5 9.3
2017-Aug-13 20:00N 43°52' E 009°56'5 9.4
2017-Aug-13 19:30N 43°48' E 009°53'5 9.3
2017-Aug-13 19:00N 43°44' E 009°50'5 9.1
2017-Aug-13 18:30N 43°40' E 009°47'4 9.0
2017-Aug-13 18:00N 43°36' E 009°46'4 8.7
2017-Aug-13 17:30N 43°32' E 009°45'4 8.4
2017-Aug-13 17:00N 43°27' E 009°44'4 8.7
2017-Aug-13 16:30N 43°23' E 009°43'4 8.8
2017-Aug-13 16:00N 43°19' E 009°42'4 8.6
2017-Aug-13 15:30N 43°15' E 009°41'5 9.3
2017-Aug-13 15:00N 43°10' E 009°39'510.0
2017-Aug-13 14:30N 43°05' E 009°38'5 9.7
2017-Aug-13 14:00N 43°00' E 009°39'5 9.9
2017-Aug-13 13:29N 42°55' E 009°41'6 9.5
2017-Aug-13 12:48N 42°49' E 009°44'7 8.7
2017-Aug-13 11:59N 42°45' E 009°52'5 8.9
2017-Aug-13 11:26N 42°43' E 009°58'5 9.4
2017-Aug-13 10:54N 42°41' E 010°04'4 9.8
2017-Aug-13 10:30N 42°39' E 010°09'8 9.8
2017-Aug-13 09:40N 42°33' E 010°16'3 9.8
2017-Aug-13 09:22N 42°31' E 010°19'6 9.9
2017-Aug-13 08:48N 42°27' E 010°24'310.0
2017-Aug-13 08:28N 42°25' E 010°27'4 9.8
2017-Aug-13 08:00N 42°22' E 010°32'5 9.9
2017-Aug-13 07:27N 42°18' E 010°37'510.0
2017-Aug-13 06:58N 42°14' E 010°42'5 9.8
2017-Aug-13 06:30N 42°11' E 010°46'5 9.7
2017-Aug-13 05:58N 42°07' E 010°51'5 9.5
2017-Aug-13 05:29N 42°04' E 010°55'5 9.5
2017-Aug-13 05:00N 42°01' E 010°59'  

Dump ship's entire track history